KLM80X EGGD-EHAM
Flight info
| Callsign | KLM80X |
|---|---|
| Flight time | N/A |
| Altitude | 29000 |
| Route | YORQI L607 ALHAD P72 IPRIL DCT REDFA |
| Aircraft | E190/M-SDE3GILORVW/S |
Departure
| Time | 2026-05-05 11:24 |
|---|---|
| Airport | Bristol Airport (EGGD) |
Arrival
| Time | N/A |
|---|---|
| Airport | Amsterdam Airport Schiphol (EHAM) |
| Time | Latitude | Longitude | Altitude | Speed | Heading |
|---|---|---|---|---|---|
| 2026-05-05 11:04 | 51.38492 | -2.72177 | 620 ft | 0 kts | 358° |
| 2026-05-05 11:05 | 51.38494 | -2.72177 | 621 ft | 0 kts | 356° |
| 2026-05-05 11:17 | 51.38475 | -2.72175 | 619 ft | 4 kts | 356° |
| 2026-05-05 11:18 | 51.38454 | -2.72174 | 616 ft | 4 kts | 354° |
| 2026-05-05 11:18 | 51.38432 | -2.72161 | 622 ft | 4 kts | 294° |
| 2026-05-05 11:18 | 51.38429 | -2.72124 | 618 ft | 3 kts | 266° |
| 2026-05-05 11:18 | 51.38429 | -2.72119 | 617 ft | 0 kts | 266° |
| 2026-05-05 11:20 | 51.38429 | -2.72126 | 618 ft | 3 kts | 266° |
| 2026-05-05 11:20 | 51.38426 | -2.72187 | 620 ft | 8 kts | 266° |
| 2026-05-05 11:20 | 51.38422 | -2.72306 | 608 ft | 13 kts | 266° |
| 2026-05-05 11:21 | 51.38415 | -2.72468 | 610 ft | 17 kts | 266° |
| 2026-05-05 11:21 | 51.38407 | -2.72696 | 617 ft | 24 kts | 266° |
| 2026-05-05 11:21 | 51.38394 | -2.73004 | 603 ft | 30 kts | 266° |
| 2026-05-05 11:21 | 51.38385 | -2.73224 | 609 ft | 16 kts | 262° |
| 2026-05-05 11:22 | 51.38327 | -2.73337 | 615 ft | 12 kts | 196° |
| 2026-05-05 11:22 | 51.38258 | -2.73332 | 624 ft | 8 kts | 161° |
| 2026-05-05 11:22 | 51.38221 | -2.73275 | 622 ft | 7 kts | 115° |
| 2026-05-05 11:22 | 51.38217 | -2.73222 | 626 ft | 0 kts | 89° |
| 2026-05-05 11:23 | 51.38217 | -2.73221 | 626 ft | 1 kts | 89° |
| 2026-05-05 11:23 | 51.38223 | -2.73048 | 634 ft | 46 kts | 85° |
| 2026-05-05 11:23 | 51.38261 | -2.72114 | 618 ft | 124 kts | 86° |
| 2026-05-05 11:23 | 51.38314 | -2.70435 | 914 ft | 165 kts | 83° |
| 2026-05-05 11:24 | 51.38366 | -2.68541 | 1920 ft | 172 kts | 82° |
| 2026-05-05 11:24 | 51.38459 | -2.66420 | 2472 ft | 217 kts | 83° |
| 2026-05-05 11:24 | 51.38556 | -2.63910 | 3116 ft | 217 kts | 83° |
| 2026-05-05 11:24 | 51.38639 | -2.61545 | 3459 ft | 201 kts | 81° |
| 2026-05-05 11:25 | 51.38751 | -2.59344 | 3560 ft | 209 kts | 77° |
| 2026-05-05 11:25 | 51.39152 | -2.57038 | 4167 ft | 209 kts | 63° |
| 2026-05-05 11:25 | 51.39785 | -2.55231 | 5547 ft | 164 kts | 46° |
| 2026-05-05 11:25 | 51.40594 | -2.53939 | 5880 ft | 183 kts | 31° |
| 2026-05-05 11:26 | 51.41806 | -2.52770 | 5943 ft | 209 kts | 26° |
| 2026-05-05 11:26 | 51.43067 | -2.51611 | 6660 ft | 211 kts | 25° |
| 2026-05-05 11:26 | 51.44362 | -2.50466 | 7286 ft | 214 kts | 26° |
| 2026-05-05 11:26 | 51.45630 | -2.49218 | 7903 ft | 217 kts | 29° |
| 2026-05-05 11:27 | 51.46932 | -2.47921 | 8458 ft | 224 kts | 30° |
| 2026-05-05 11:27 | 51.48272 | -2.46572 | 9003 ft | 232 kts | 30° |
| 2026-05-05 11:27 | 51.49664 | -2.45176 | 9566 ft | 240 kts | 30° |
| 2026-05-05 11:27 | 51.50971 | -2.43450 | 10086 ft | 250 kts | 54° |
| 2026-05-05 11:28 | 51.51559 | -2.40800 | 10616 ft | 260 kts | 86° |
| 2026-05-05 11:28 | 51.51161 | -2.37956 | 11194 ft | 268 kts | 116° |
| 2026-05-05 11:28 | 51.50210 | -2.35331 | 11809 ft | 274 kts | 119° |
| 2026-05-05 11:28 | 51.49297 | -2.32655 | 12412 ft | 278 kts | 108° |
| 2026-05-05 11:29 | 51.48918 | -2.29612 | 13022 ft | 279 kts | 91° |
| 2026-05-05 11:29 | 51.48923 | -2.26469 | 13670 ft | 282 kts | 85° |
| 2026-05-05 11:29 | 51.49191 | -2.23344 | 14258 ft | 284 kts | 75° |
| 2026-05-05 11:29 | 51.49652 | -2.20279 | 14826 ft | 288 kts | 78° |
| 2026-05-05 11:30 | 51.49940 | -2.17067 | 15420 ft | 291 kts | 84° |
| 2026-05-05 11:30 | 51.50060 | -2.13803 | 16026 ft | 294 kts | 88° |
| 2026-05-05 11:30 | 51.49953 | -2.10521 | 16645 ft | 296 kts | 95° |
| 2026-05-05 11:30 | 51.49746 | -2.07225 | 17279 ft | 297 kts | 96° |
| 2026-05-05 11:31 | 51.49517 | -2.03915 | 17935 ft | 299 kts | 97° |
| 2026-05-05 11:31 | 51.49281 | -2.00594 | 18575 ft | 300 kts | 97° |
| 2026-05-05 11:31 | 51.49042 | -1.97260 | 19172 ft | 301 kts | 97° |
| 2026-05-05 11:31 | 51.48802 | -1.93922 | 19763 ft | 301 kts | 98° |